Montreal Mirabel, Quebec

2:14 AM EDT on April 26, 2017 (GMT -0400)
Montreal Mirabel | | Change Station

Elev 269 ft 45.68 °N, 74.03 °W | Updated 14 minutes ago

Overcast
Overcast
46 °F
Feels Like 44 °F
N
6
Wind Variable Wind from ENE

Today
High -- | Low -- °F
--% Chance of Precip.
Yesterday
High -- | Low -- °F
Precip. -- in
Pressure 30.02 in
Visibility 6.0 miles
Clouds Scattered Clouds 400 ft
Mostly Cloudy 1100 ft
Overcast 7000 ft
Windchill 44 °F
Dew Point 46 °F
Humidity 100%
Rainfall 0.00 in
Snow Depth Not available.
5:51 AM 7:57 PM
Waning Crescent, 0% visible
METAR CYMX 260600Z 07005KT 020V090 6SM BR SCT004 BKN011 OVC070 08/08 A3001 RMK SF4SC3AC1 SLP164
Pressure 30.02 in
Visibility 6.0 miles
Clouds Scattered Clouds 400 ft
Mostly Cloudy 1100 ft
Overcast 7000 ft
Windchill 44 °F
Dew Point 46 °F
Humidity 100%
Rainfall 0.00 in
Snow Depth Not available.
5:51 AM 7:57 PM
Waning Crescent, 0% visible
METAR CYMX 260600Z 07005KT 020V090 6SM BR SCT004 BKN011 OVC070 08/08 A3001 RMK SF4SC3AC1 SLP164

Get Severe Weather Alerts

Thanks for signing up!

Be on the lookout for a verification email in your inbox.

You'll start receiving the daily forecast at 8 AM.

×

10-Day Weather Forecast

Almanac

Astronomy

Apr. 26, 2017 Rise Set
Actual Time
Civil Twilight
Nautical Twilight
Astronomical Twilight
Moon
Length of Visible Light
Length of Day
Tomorrow will be .
, % of the Moon is Illuminated

Today's Extremes

Country Highs Country Lows

Community

WunderPhotos

WunderBlog® & News

Nearby

Air Quality

  Air Quality AQ Index Pollutant
Not available.

Snow Depth

Station Depth Elevation

Earthquake Activity

City Distance Mag. Time & Date
Minimum magnitude displayed is 2.5.

Coastal Water Temperatures

Place Temperature

Stations

Nearby Weather Stations

Station Location Temp. Windchill Dew Point Humidity Wind Precip. Elev Updated Type
                   

Watches & Warnings

There are currently no watches in effect.